Terminal Aerodrome Forecast
Issued by NWS Green Bay, WI

Home | Current Version | Previous Version | Graphics & Text | Print | Product List | Glossary On
Versions: 1 2 3 4 5 6 7 8 9 10 11 12 13 14 15
000
FTUS43 KGRB 202335
TAFGRB
TAF
KGRB 202335Z 2100/2124 19008KT P6SM SKC
     FM210700 19005KT 4SM BR SCT120 WS009/23035KT
     FM211400 21011G18KT P6SM VCSH SCT035 BKN080
     FM211900 23013G23KT P6SM SCT040 PROB30 2120/2124 3SM TSRA
      BKN025CB=

USA.gov is the U.S. government's official web portal to all federal, state and local government web resources and services.